createdAt,value
2023-01-01T00:01:14.361Z,54.00
2023-01-01T00:03:37.836Z,54.00
2023-01-01T00:06:07.697Z,53.20
2023-01-01T00:08:30.965Z,52.80
2023-01-01T00:10:54.357Z,52.90
2023-01-01T00:13:17.709Z,53.00
2023-01-01T00:15:41.634Z,53.40
2023-01-01T00:18:05.343Z,53.30
2023-01-01T00:20:34.695Z,52.90
2023-01-01T00:22:59.897Z,52.40
2023-01-01T00:25:23.313Z,53.90
2023-01-01T00:27:46.632Z,52.70
2023-01-01T00:30:12.056Z,52.50
2023-01-01T00:32:35.410Z,52.30
2023-01-01T00:34:58.720Z,53.20
2023-01-01T00:37:22.081Z,53.30
2023-01-01T00:39:46.846Z,52.90
2023-01-01T00:42:10.043Z,52.40
2023-01-01T00:44:33.350Z,51.50
2023-01-01T00:46:56.770Z,51.40
2023-01-01T00:49:19.976Z,51.30
2023-01-01T00:51:43.348Z,51.70
2023-01-01T00:54:06.999Z,51.10
2023-01-01T00:56:31.845Z,51.00
2023-01-01T00:59:00.657Z,50.60
2023-01-01T01:01:25.259Z,50.20
2023-01-01T01:03:48.532Z,49.60
2023-01-01T01:06:13.826Z,51.40
2023-01-01T01:08:39.319Z,49.90
2023-01-01T01:11:07.186Z,50.10
2023-01-01T01:13:31.992Z,50.10
2023-01-01T01:15:56.461Z,50.00
2023-01-01T01:18:20.013Z,50.60
2023-01-01T01:20:52.322Z,49.60
2023-01-01T01:23:16.128Z,50.10
2023-01-01T01:25:39.671Z,49.70
2023-01-01T01:28:03.024Z,49.30
2023-01-01T01:30:27.909Z,48.70
2023-01-01T01:32:51.286Z,48.90
2023-01-01T01:35:14.638Z,49.10
2023-01-01T01:37:37.980Z,48.90
2023-01-01T01:40:01.763Z,49.60
2023-01-01T01:42:25.040Z,49.20
2023-01-01T01:44:57.075Z,48.50
2023-01-01T01:47:29.580Z,49.00
2023-01-01T01:49:58.803Z,49.00
2023-01-01T01:52:22.704Z,49.90
2023-01-01T01:54:46.060Z,50.10
2023-01-01T01:57:13.096Z,49.50
2023-01-01T01:59:40.899Z,49.70
2023-01-01T02:02:04.555Z,50.30
2023-01-01T02:04:30.036Z,50.80
2023-01-01T02:06:54.277Z,50.40
2023-01-01T02:09:18.198Z,50.00
2023-01-01T02:11:41.490Z,49.90
2023-01-01T02:14:05.965Z,51.50
2023-01-01T02:16:37.369Z,50.10
2023-01-01T02:19:09.667Z,50.20
2023-01-01T02:21:40.981Z,50.50
2023-01-01T02:24:22.734Z,49.80
2023-01-01T02:26:56.197Z,50.80
2023-01-01T02:29:30.312Z,50.50
2023-01-01T02:32:02.130Z,51.60
2023-01-01T02:34:30.922Z,51.00
2023-01-01T02:36:57.125Z,51.80
2023-01-01T02:39:24.068Z,51.80
2023-01-01T02:41:51.807Z,52.00
2023-01-01T02:44:15.471Z,51.10
2023-01-01T02:46:40.285Z,51.40
2023-01-01T02:49:09.932Z,51.80
2023-01-01T02:51:45.306Z,51.40
2023-01-01T02:54:13.966Z,52.40
2023-01-01T02:56:46.230Z,52.20
2023-01-01T02:59:40.903Z,52.70
2023-01-01T03:02:21.030Z,52.70
2023-01-01T03:04:55.908Z,52.90
2023-01-01T03:07:37.272Z,52.90
2023-01-01T03:10:07.545Z,53.10
2023-01-01T03:12:40.634Z,53.00
2023-01-01T03:15:15.925Z,53.30
2023-01-01T03:17:50.080Z,53.20
2023-01-01T03:20:19.742Z,53.30
2023-01-01T03:25:11.683Z,53.00
2023-01-01T03:27:41.940Z,53.40
2023-01-01T03:30:10.545Z,54.40
2023-01-01T03:32:55.933Z,53.80
2023-01-01T03:35:22.511Z,53.60
2023-01-01T03:37:51.198Z,53.30
2023-01-01T03:40:15.789Z,53.90
2023-01-01T03:42:44.193Z,53.90
2023-01-01T03:45:15.046Z,53.80
2023-01-01T03:47:38.915Z,54.30
2023-01-01T03:50:03.880Z,54.60
2023-01-01T03:52:41.041Z,54.50
2023-01-01T03:55:10.283Z,54.50
2023-01-01T03:57:44.418Z,54.40
2023-01-01T04:00:16.277Z,54.60
2023-01-01T04:02:44.702Z,55.40
2023-01-01T04:05:11.278Z,55.20
2023-01-01T04:07:36.729Z,56.20
2023-01-01T04:10:17.038Z,56.40
2023-01-01T04:12:40.611Z,55.70
2023-01-01T04:15:06.391Z,55.80
2023-01-01T04:17:29.595Z,55.70
2023-01-01T04:19:55.154Z,56.00
2023-01-01T04:22:20.013Z,55.70
2023-01-01T04:24:44.661Z,57.10
2023-01-01T04:27:08.103Z,56.90
2023-01-01T04:29:31.423Z,57.50
2023-01-01T04:31:54.865Z,56.30
2023-01-01T04:34:18.386Z,56.60
2023-01-01T04:36:41.708Z,56.50
2023-01-01T04:39:06.148Z,56.80
2023-01-01T04:41:30.823Z,56.90
2023-01-01T04:43:54.070Z,57.20
2023-01-01T04:46:18.964Z,56.80
2023-01-01T04:48:42.196Z,57.70
2023-01-01T04:51:07.187Z,57.70
2023-01-01T04:53:33.771Z,58.40
2023-01-01T04:55:57.172Z,57.40
2023-01-01T04:58:21.873Z,57.60
2023-01-01T05:00:50.061Z,58.00
2023-01-01T05:03:13.344Z,58.10
2023-01-01T05:05:36.911Z,58.40
2023-01-01T05:08:00.156Z,58.40
2023-01-01T05:10:23.449Z,58.80
2023-01-01T05:12:46.755Z,58.80
2023-01-01T05:15:12.383Z,58.30
2023-01-01T05:17:35.763Z,58.20
2023-01-01T05:20:00.844Z,58.60
2023-01-01T05:22:24.091Z,58.00
2023-01-01T05:24:47.432Z,59.40
2023-01-01T05:27:10.709Z,58.60
2023-01-01T05:29:34.018Z,58.50
2023-01-01T05:31:58.740Z,58.30
2023-01-01T05:34:23.427Z,58.00
2023-01-01T05:36:47.173Z,59.20
2023-01-01T05:39:13.124Z,58.90
2023-01-01T05:41:37.098Z,58.20
2023-01-01T05:44:02.504Z,58.80
2023-01-01T05:46:26.492Z,59.00
2023-01-01T05:48:52.193Z,58.30
2023-01-01T05:51:18.823Z,58.90
2023-01-01T05:53:44.527Z,59.00
2023-01-01T05:56:08.766Z,60.00
2023-01-01T05:58:34.551Z,60.10
2023-01-01T06:00:58.605Z,61.20
2023-01-01T06:03:22.264Z,61.20
2023-01-01T06:05:47.270Z,60.60
2023-01-01T06:08:10.583Z,60.60
2023-01-01T06:10:33.861Z,60.80
2023-01-01T06:12:58.651Z,60.80
2023-01-01T06:15:22.492Z,61.10
2023-01-01T06:17:45.721Z,61.20
2023-01-01T06:20:10.993Z,61.30
2023-01-01T06:22:37.614Z,60.60
2023-01-01T06:25:01.138Z,60.40
2023-01-01T06:27:24.368Z,60.50
2023-01-01T06:29:47.693Z,60.70
2023-01-01T06:32:11.017Z,61.00
2023-01-01T06:34:34.296Z,60.60
2023-01-01T06:37:01.429Z,61.20
2023-01-01T06:39:31.040Z,60.80
2023-01-01T06:41:54.584Z,61.20
2023-01-01T06:44:17.827Z,60.90
2023-01-01T06:46:41.127Z,61.30
2023-01-01T06:49:06.413Z,61.30
2023-01-01T06:51:32.420Z,61.10
2023-01-01T06:53:56.351Z,61.70
2023-01-01T06:56:21.993Z,61.60
2023-01-01T06:58:45.989Z,62.00
2023-01-01T07:01:12.842Z,61.40
2023-01-01T07:03:37.645Z,61.70
2023-01-01T07:06:01.196Z,62.10
2023-01-01T07:08:24.492Z,61.60
2023-01-01T07:10:48.105Z,62.00
2023-01-01T07:13:12.751Z,62.30
2023-01-01T07:15:36.050Z,62.30
2023-01-01T07:17:59.343Z,62.50
2023-01-01T07:20:23.008Z,63.00
2023-01-01T07:22:46.349Z,63.60
2023-01-01T07:25:12.088Z,64.50
2023-01-01T07:27:35.411Z,65.10
2023-01-01T07:30:00.144Z,66.20
2023-01-01T07:32:23.365Z,66.60
2023-01-01T07:34:50.678Z,67.10
2023-01-01T07:37:14.220Z,68.20
2023-01-01T07:39:37.652Z,69.10
2023-01-01T07:42:02.832Z,68.70
2023-01-01T07:44:29.512Z,69.50
2023-01-01T07:47:03.738Z,69.50
2023-01-01T07:49:26.962Z,69.40
2023-01-01T07:51:50.242Z,69.60
2023-01-01T07:54:13.564Z,69.20
2023-01-01T07:56:37.351Z,68.50
2023-01-01T07:59:00.601Z,69.00
2023-01-01T08:01:23.950Z,69.50
2023-01-01T08:03:53.725Z,69.50
2023-01-01T08:06:17.360Z,69.60
2023-01-01T08:08:40.950Z,70.00
2023-01-01T08:11:04.842Z,69.70
2023-01-01T08:13:28.139Z,69.40
2023-01-01T08:15:51.703Z,69.80
2023-01-01T08:18:15.201Z,70.00
2023-01-01T08:20:39.827Z,70.10
2023-01-01T08:23:07.341Z,70.20
2023-01-01T08:25:31.063Z,69.60
2023-01-01T08:27:54.434Z,70.30
2023-01-01T08:30:18.483Z,70.10
2023-01-01T08:32:41.788Z,70.40
2023-01-01T08:35:05.881Z,70.10
2023-01-01T08:37:30.798Z,70.80
2023-01-01T08:39:54.316Z,70.20
2023-01-01T08:42:17.599Z,70.40
2023-01-01T08:44:40.925Z,70.10
2023-01-01T08:47:04.280Z,70.50
2023-01-01T08:49:28.087Z,70.10
2023-01-01T08:51:51.539Z,69.80
2023-01-01T08:54:16.240Z,70.30
2023-01-01T08:56:39.548Z,70.20
2023-01-01T08:59:04.552Z,70.70
2023-01-01T09:01:28.195Z,70.40
2023-01-01T09:03:51.757Z,70.40
2023-01-01T09:06:15.539Z,71.10
2023-01-01T09:08:38.716Z,70.60
2023-01-01T09:11:04.994Z,70.50
2023-01-01T09:13:28.438Z,70.30
2023-01-01T09:15:51.956Z,70.30
2023-01-01T09:18:15.624Z,70.20
2023-01-01T09:20:39.715Z,70.70
2023-01-01T09:23:05.963Z,71.00
2023-01-01T09:25:29.725Z,70.40
2023-01-01T09:27:59.747Z,70.70
2023-01-01T09:30:23.187Z,70.80
2023-01-01T09:32:46.546Z,70.70
2023-01-01T09:35:11.016Z,70.80
2023-01-01T09:37:34.736Z,70.90
2023-01-01T09:39:58.412Z,71.10
2023-01-01T09:42:33.032Z,70.40
2023-01-01T09:45:18.729Z,70.40
2023-01-01T09:47:46.162Z,70.00
2023-01-01T09:50:15.665Z,70.30
2023-01-01T09:52:46.088Z,70.60
2023-01-01T09:55:22.418Z,70.80
2023-01-01T09:57:45.794Z,70.70
2023-01-01T10:00:17.955Z,70.80
2023-01-01T10:03:08.210Z,70.80
2023-01-01T10:05:45.202Z,70.70
2023-01-01T10:08:23.133Z,70.80
2023-01-01T10:10:55.548Z,71.00
2023-01-01T10:13:26.765Z,71.50
2023-01-01T10:15:58.762Z,71.40
2023-01-01T10:18:26.518Z,71.20
2023-01-01T10:20:59.210Z,70.70
2023-01-01T10:23:26.882Z,71.10
2023-01-01T10:25:50.277Z,71.10
2023-01-01T10:28:20.937Z,71.00
2023-01-01T10:30:45.320Z,71.00
2023-01-01T10:33:14.755Z,70.80
2023-01-01T10:35:43.168Z,70.80
2023-01-01T10:38:06.984Z,71.00
2023-01-01T10:40:31.442Z,70.60
2023-01-01T10:42:57.145Z,71.00
2023-01-01T10:45:28.794Z,71.00
2023-01-01T10:48:16.215Z,70.70
2023-01-01T10:50:46.256Z,70.90
2023-01-01T10:53:27.336Z,71.40
2023-01-01T10:55:51.753Z,70.80
2023-01-01T10:58:28.392Z,71.20
2023-01-01T11:00:59.904Z,69.90
2023-01-01T11:03:24.784Z,70.40
2023-01-01T11:06:08.292Z,70.50
2023-01-01T11:08:33.926Z,70.20
2023-01-01T11:10:59.096Z,70.40
2023-01-01T11:13:23.137Z,70.40
2023-01-01T11:15:46.420Z,70.10
2023-01-01T11:18:16.038Z,70.20
2023-01-01T11:20:41.353Z,70.00
2023-01-01T11:23:24.431Z,70.00
2023-01-01T11:26:03.604Z,70.10
2023-01-01T11:28:28.780Z,70.00
2023-01-01T11:31:07.276Z,69.90
2023-01-01T11:33:34.352Z,69.90
2023-01-01T11:35:59.552Z,70.10
2023-01-01T11:38:29.817Z,70.40
2023-01-01T11:40:56.491Z,70.40
2023-01-01T11:43:24.357Z,69.80
2023-01-01T11:45:48.659Z,70.20
2023-01-01T11:48:17.823Z,70.40
2023-01-01T11:50:43.459Z,69.90
2023-01-01T11:53:29.450Z,70.10
2023-01-01T11:55:57.875Z,69.70
2023-01-01T11:58:32.290Z,69.80
2023-01-01T12:01:01.094Z,69.60
2023-01-01T12:03:33.281Z,69.80
2023-01-01T12:06:05.979Z,70.30
2023-01-01T12:08:36.622Z,69.60
2023-01-01T12:11:08.871Z,69.10
2023-01-01T12:13:43.378Z,69.20
2023-01-01T12:16:13.472Z,69.70
2023-01-01T12:18:44.976Z,69.40
2023-01-01T12:21:14.901Z,68.80
2023-01-01T12:23:39.774Z,69.30
2023-01-01T12:26:16.833Z,69.80
2023-01-01T12:28:48.315Z,69.70
2023-01-01T12:31:21.226Z,69.50
2023-01-01T12:33:59.621Z,69.20
2023-01-01T12:36:36.733Z,69.00
2023-01-01T12:40:15.015Z,69.80
2023-01-01T12:42:52.318Z,69.10
2023-01-01T12:45:44.225Z,69.60
2023-01-01T12:48:31.950Z,69.50
2023-01-01T12:51:05.163Z,69.40
2023-01-01T12:53:37.873Z,69.10
2023-01-01T12:56:22.409Z,69.60
2023-01-01T12:58:53.814Z,70.00
2023-01-01T13:01:28.283Z,69.70
2023-01-01T13:04:00.335Z,70.10
2023-01-01T13:06:29.756Z,71.10
2023-01-01T13:09:00.252Z,69.20
2023-01-01T13:11:27.340Z,69.80
2023-01-01T13:13:50.817Z,69.70
2023-01-01T13:16:14.547Z,69.90
2023-01-01T13:18:38.140Z,69.40
2023-01-01T13:21:22.921Z,69.40
2023-01-01T13:23:49.395Z,69.90
2023-01-01T13:26:42.867Z,69.50
2023-01-01T13:29:35.328Z,69.40
2023-01-01T13:32:07.277Z,69.20
2023-01-01T13:34:37.187Z,69.80
2023-01-01T13:37:43.777Z,69.70
2023-01-01T13:40:34.069Z,70.00
2023-01-01T13:43:19.367Z,69.70
2023-01-01T13:49:07.770Z,69.90
2023-01-01T13:52:06.407Z,70.30
2023-01-01T13:55:18.158Z,70.60
2023-01-01T13:58:10.184Z,70.20
2023-01-01T14:00:49.440Z,70.30
2023-01-01T14:03:16.240Z,70.30
2023-01-01T14:05:46.476Z,70.30
2023-01-01T14:08:30.535Z,70.70
2023-01-01T14:10:54.008Z,70.70
2023-01-01T14:13:26.300Z,70.40
2023-01-01T14:15:56.717Z,70.60
2023-01-01T14:18:21.639Z,69.90
2023-01-01T14:20:48.537Z,70.50
2023-01-01T14:23:14.871Z,69.80
2023-01-01T14:25:38.283Z,70.40
2023-01-01T14:28:02.203Z,70.20
2023-01-01T14:30:27.509Z,71.00
2023-01-01T14:32:58.363Z,71.50
2023-01-01T14:35:21.758Z,71.50
2023-01-01T14:37:45.376Z,71.50
2023-01-01T14:40:18.544Z,72.00
2023-01-01T14:42:42.483Z,72.20
2023-01-01T14:45:07.250Z,72.50
2023-01-01T14:47:35.015Z,72.60
2023-01-01T14:50:04.853Z,72.20
2023-01-01T14:52:31.336Z,72.20
2023-01-01T14:54:56.142Z,72.80
2023-01-01T14:57:29.328Z,72.60
2023-01-01T14:59:56.450Z,72.40
2023-01-01T15:02:24.504Z,72.40
2023-01-01T15:04:49.518Z,72.90
2023-01-01T15:07:22.749Z,72.90
2023-01-01T15:09:46.311Z,72.80
2023-01-01T15:12:15.262Z,73.00
2023-01-01T15:14:41.065Z,72.60
2023-01-01T15:17:06.443Z,73.10
2023-01-01T15:19:29.871Z,73.20
2023-01-01T15:21:54.812Z,73.50
2023-01-01T15:24:22.184Z,73.40
2023-01-01T15:26:52.439Z,73.30
2023-01-01T15:29:29.508Z,73.40
2023-01-01T15:31:58.276Z,73.90
2023-01-01T15:34:25.397Z,73.90
2023-01-01T15:36:48.958Z,74.40
2023-01-01T15:39:13.994Z,73.50
2023-01-01T15:41:45.469Z,74.10
2023-01-01T15:44:15.098Z,74.10
2023-01-01T15:46:38.934Z,74.30
2023-01-01T15:49:02.535Z,73.90
2023-01-01T15:51:28.213Z,74.80
2023-01-01T15:53:56.793Z,75.00
2023-01-01T15:56:25.449Z,75.40
2023-01-01T15:58:56.263Z,75.80
2023-01-01T16:01:23.528Z,76.10
2023-01-01T16:03:48.167Z,77.00
2023-01-01T16:06:17.252Z,77.10
2023-01-01T16:08:40.570Z,76.50
2023-01-01T16:11:03.909Z,77.00
2023-01-01T16:13:28.509Z,76.80
2023-01-01T16:15:53.357Z,77.60
2023-01-01T16:18:19.035Z,77.70
2023-01-01T16:20:42.505Z,78.00
2023-01-01T16:23:05.734Z,78.40
2023-01-01T16:25:29.294Z,79.20
2023-01-01T16:27:52.556Z,79.80
2023-01-01T16:30:17.689Z,79.70
2023-01-01T16:32:41.640Z,80.20
2023-01-01T16:35:11.561Z,81.00
2023-01-01T16:37:35.417Z,81.50
2023-01-01T16:39:59.214Z,82.40
2023-01-01T16:42:22.499Z,83.10
2023-01-01T16:44:45.965Z,83.10
2023-01-01T16:47:11.291Z,83.00
2023-01-01T16:49:34.964Z,83.70
2023-01-01T16:51:58.152Z,84.10
2023-01-01T16:54:21.631Z,84.80
2023-01-01T16:56:45.000Z,85.40
2023-01-01T16:59:08.292Z,85.80
2023-01-01T17:01:32.262Z,86.40
2023-01-01T17:03:57.174Z,86.40
2023-01-01T17:06:21.126Z,86.80
2023-01-01T17:08:44.843Z,87.00
2023-01-01T17:11:10.936Z,87.10
2023-01-01T17:13:35.984Z,87.70
2023-01-01T17:15:59.597Z,87.90
2023-01-01T17:18:39.428Z,87.60
2023-01-01T17:21:09.225Z,88.10
2023-01-01T17:23:36.576Z,88.40
2023-01-01T17:26:08.268Z,88.10
2023-01-01T17:28:31.503Z,88.30
2023-01-01T17:31:03.460Z,88.40
2023-01-01T17:33:26.800Z,88.80
2023-01-01T17:35:50.600Z,88.80
2023-01-01T17:38:15.394Z,88.90
2023-01-01T17:40:38.714Z,89.10
2023-01-01T17:43:03.418Z,89.60
2023-01-01T17:45:26.720Z,89.30
2023-01-01T17:47:50.592Z,89.40
2023-01-01T17:50:14.081Z,89.60
2023-01-01T17:52:37.316Z,89.80
2023-01-01T17:55:02.190Z,90.00
2023-01-01T17:57:25.577Z,90.30
2023-01-01T17:59:48.853Z,90.30
2023-01-01T18:02:14.135Z,90.40
2023-01-01T18:04:37.829Z,90.60
2023-01-01T18:07:05.971Z,90.50
2023-01-01T18:09:29.706Z,90.80
2023-01-01T18:11:55.033Z,90.90
2023-01-01T18:14:22.736Z,90.90
2023-01-01T18:16:48.130Z,91.20
2023-01-01T18:19:11.473Z,91.50
2023-01-01T18:21:35.593Z,91.50
2023-01-01T18:23:59.284Z,91.80
2023-01-01T18:26:25.917Z,91.90
2023-01-01T18:28:54.524Z,92.00
2023-01-01T18:31:18.384Z,92.00
2023-01-01T18:33:42.085Z,91.90
2023-01-01T18:36:06.887Z,91.70
2023-01-01T18:38:30.128Z,91.80
2023-01-01T18:41:02.310Z,92.00
2023-01-01T18:43:26.238Z,92.00
2023-01-01T18:45:51.051Z,91.90
2023-01-01T18:48:16.892Z,92.50
2023-01-01T18:50:40.040Z,92.70
2023-01-01T18:53:19.743Z,92.60
2023-01-01T18:55:42.980Z,92.60
2023-01-01T18:58:18.393Z,92.50
2023-01-01T19:00:42.540Z,92.40
2023-01-01T19:03:18.109Z,92.30
2023-01-01T19:05:41.889Z,92.30
2023-01-01T19:08:16.883Z,92.30
2023-01-01T19:10:42.130Z,92.30
2023-01-01T19:13:19.536Z,92.30
2023-01-01T19:15:45.448Z,92.50
2023-01-01T19:18:18.499Z,92.30
2023-01-01T19:20:42.309Z,92.40
2023-01-01T19:23:16.150Z,92.70
2023-01-01T19:25:40.672Z,92.50
2023-01-01T19:28:36.244Z,92.30
2023-01-01T19:31:00.557Z,92.10
2023-01-01T19:33:25.285Z,92.00
2023-01-01T19:35:48.930Z,91.90
2023-01-01T19:38:12.619Z,91.90
2023-01-01T19:40:35.839Z,92.00
2023-01-01T19:42:59.810Z,92.20
2023-01-01T19:45:23.044Z,92.10
2023-01-01T19:47:46.351Z,92.10
2023-01-01T19:50:11.614Z,92.20
2023-01-01T19:52:34.920Z,92.10
2023-01-01T19:54:58.368Z,92.00
2023-01-01T19:57:21.713Z,92.00
2023-01-01T19:59:44.951Z,92.00
2023-01-01T20:02:44.040Z,91.90
2023-01-01T20:04:52.136Z,91.80
2023-01-01T20:07:17.472Z,91.60
2023-01-01T20:09:40.940Z,91.60
2023-01-01T20:12:04.398Z,91.80
2023-01-01T20:14:27.680Z,92.00
2023-01-01T20:16:51.044Z,91.90
2023-01-01T20:19:14.440Z,92.10
2023-01-01T20:21:55.207Z,92.10
2023-01-01T20:24:19.874Z,92.00
2023-01-01T20:26:43.529Z,91.70
2023-01-01T20:29:21.998Z,91.80
2023-01-01T20:31:45.625Z,91.70
2023-01-01T20:34:08.887Z,91.70
2023-01-01T20:36:49.914Z,91.70
2023-01-01T20:39:13.917Z,91.70
2023-01-01T20:41:38.465Z,91.70
2023-01-01T20:44:01.802Z,91.40
2023-01-01T20:46:25.879Z,91.30
2023-01-01T20:48:49.521Z,91.20
2023-01-01T20:51:12.961Z,91.10
2023-01-01T20:53:36.341Z,91.10
2023-01-01T20:55:59.609Z,91.10
2023-01-01T20:58:24.353Z,91.10
2023-01-01T21:00:47.820Z,91.10
2023-01-01T21:03:11.238Z,91.40
2023-01-01T21:05:34.480Z,90.30
2023-01-01T21:07:57.750Z,90.20
2023-01-01T21:10:21.087Z,90.40
2023-01-01T21:12:44.462Z,90.30
2023-01-01T21:15:15.712Z,90.30
2023-01-01T21:17:38.980Z,90.30
2023-01-01T21:20:02.489Z,90.20
2023-01-01T21:22:25.856Z,90.40
2023-01-01T21:24:53.940Z,90.60
2023-01-01T21:27:24.009Z,90.40
2023-01-01T21:29:50.533Z,90.70
2023-01-01T21:32:23.317Z,91.10
2023-01-01T21:34:48.898Z,91.20
2023-01-01T21:37:39.232Z,91.30
2023-01-01T21:40:31.800Z,91.60
2023-01-01T21:42:59.544Z,91.80
2023-01-01T21:45:31.034Z,91.80
2023-01-01T21:47:56.071Z,91.40
2023-01-01T21:50:26.223Z,91.60
2023-01-01T21:52:49.473Z,91.50
2023-01-01T21:55:20.376Z,91.60
2023-01-01T21:57:45.376Z,91.30
2023-01-01T22:00:22.904Z,91.50
2023-01-01T22:02:48.179Z,91.60
2023-01-01T22:05:34.158Z,91.90
2023-01-01T22:07:58.985Z,91.90
2023-01-01T22:10:26.664Z,91.60
2023-01-01T22:12:55.346Z,91.40
2023-01-01T22:15:40.308Z,91.20
2023-01-01T22:18:25.554Z,91.20
2023-01-01T22:20:50.339Z,91.10
2023-01-01T22:23:25.737Z,91.20
2023-01-01T22:25:49.466Z,91.20
2023-01-01T22:28:20.191Z,90.90
2023-01-01T22:30:44.734Z,90.80
2023-01-01T22:33:16.946Z,90.70
2023-01-01T22:35:40.395Z,90.40
2023-01-01T22:38:09.175Z,90.30
2023-01-01T22:40:35.411Z,90.60
2023-01-01T22:43:02.065Z,90.60
2023-01-01T22:45:25.549Z,89.40
2023-01-01T22:47:49.246Z,89.90
2023-01-01T22:50:21.123Z,90.10
2023-01-01T22:52:44.572Z,90.20
2023-01-01T22:55:10.200Z,89.90
2023-01-01T22:57:33.449Z,89.40
2023-01-01T22:59:56.748Z,89.50
2023-01-01T23:02:20.104Z,89.90
2023-01-01T23:04:43.630Z,89.40
2023-01-01T23:07:14.158Z,88.80
2023-01-01T23:09:37.460Z,89.70
2023-01-01T23:12:02.156Z,89.80
2023-01-01T23:14:43.228Z,89.50
2023-01-01T23:17:06.662Z,89.00
2023-01-01T23:19:29.940Z,88.70
2023-01-01T23:21:53.414Z,88.20
2023-01-01T23:24:19.623Z,88.70
2023-01-01T23:26:44.086Z,87.90
2023-01-01T23:29:11.128Z,88.30
2023-01-01T23:31:35.350Z,88.10
2023-01-01T23:33:59.793Z,87.60
2023-01-01T23:36:23.765Z,88.10
2023-01-01T23:38:47.167Z,87.50
2023-01-01T23:41:10.480Z,87.60
2023-01-01T23:43:35.486Z,87.50
2023-01-01T23:46:04.229Z,87.10
2023-01-01T23:48:29.144Z,87.60
2023-01-01T23:50:52.409Z,87.80
2023-01-01T23:53:15.896Z,87.30
2023-01-01T23:55:40.063Z,87.50
2023-01-01T23:58:03.386Z,87.50
